sensor_id;sensor_type;location;lat;lon;timestamp;temperature;humidity
41457;DHT22;27197;51.752;5.220;2022-08-02T00:01:15;24.00;68.90
41457;DHT22;27197;51.752;5.220;2022-08-02T00:03:44;24.00;68.90
41457;DHT22;27197;51.752;5.220;2022-08-02T00:06:15;24.00;68.70
41457;DHT22;27197;51.752;5.220;2022-08-02T00:08:47;24.00;68.40
41457;DHT22;27197;51.752;5.220;2022-08-02T00:11:17;24.00;68.50
41457;DHT22;27197;51.752;5.220;2022-08-02T00:13:47;24.00;68.30
41457;DHT22;27197;51.752;5.220;2022-08-02T00:16:18;24.00;68.30
41457;DHT22;27197;51.752;5.220;2022-08-02T00:18:50;24.00;68.30
41457;DHT22;27197;51.752;5.220;2022-08-02T00:21:25;24.00;68.10
41457;DHT22;27197;51.752;5.220;2022-08-02T00:23:54;24.00;68.00
41457;DHT22;27197;51.752;5.220;2022-08-02T00:26:24;24.00;67.70
41457;DHT22;27197;51.752;5.220;2022-08-02T00:28:54;24.00;67.60
41457;DHT22;27197;51.752;5.220;2022-08-02T00:31:25;24.00;67.70
41457;DHT22;27197;51.752;5.220;2022-08-02T00:33:58;24.00;67.60
41457;DHT22;27197;51.752;5.220;2022-08-02T00:36:27;24.00;67.50
41457;DHT22;27197;51.752;5.220;2022-08-02T00:39:01;24.00;67.30
41457;DHT22;27197;51.752;5.220;2022-08-02T00:41:30;24.00;67.30
41457;DHT22;27197;51.752;5.220;2022-08-02T00:43:59;24.00;67.30
41457;DHT22;27197;51.752;5.220;2022-08-02T00:46:30;24.00;67.30
41457;DHT22;27197;51.752;5.220;2022-08-02T00:49:02;24.00;67.30
41457;DHT22;27197;51.752;5.220;2022-08-02T00:51:32;24.00;67.50
41457;DHT22;27197;51.752;5.220;2022-08-02T00:54:03;24.00;67.00
41457;DHT22;27197;51.752;5.220;2022-08-02T00:56:34;24.00;67.60
41457;DHT22;27197;51.752;5.220;2022-08-02T00:59:05;24.00;67.10
41457;DHT22;27197;51.752;5.220;2022-08-02T01:01:35;24.00;67.00
41457;DHT22;27197;51.752;5.220;2022-08-02T01:04:12;24.00;66.80
41457;DHT22;27197;51.752;5.220;2022-08-02T01:06:42;24.00;66.70
41457;DHT22;27197;51.752;5.220;2022-08-02T01:09:14;24.00;66.60
41457;DHT22;27197;51.752;5.220;2022-08-02T01:11:43;24.00;66.50
41457;DHT22;27197;51.752;5.220;2022-08-02T01:14:16;24.00;66.60
41457;DHT22;27197;51.752;5.220;2022-08-02T01:16:58;24.00;66.60
41457;DHT22;27197;51.752;5.220;2022-08-02T01:19:47;24.00;66.50
41457;DHT22;27197;51.752;5.220;2022-08-02T01:30:39;24.00;64.80
41457;DHT22;27197;51.752;5.220;2022-08-02T01:33:15;24.00;66.10
41457;DHT22;27197;51.752;5.220;2022-08-02T01:35:48;24.00;66.10
41457;DHT22;27197;51.752;5.220;2022-08-02T01:38:21;23.90;62.90
41457;DHT22;27197;51.752;5.220;2022-08-02T01:40:50;23.90;65.80
41457;DHT22;27197;51.752;5.220;2022-08-02T01:43:24;23.90;63.10
41457;DHT22;27197;51.752;5.220;2022-08-02T01:45:59;23.90;64.90
41457;DHT22;27197;51.752;5.220;2022-08-02T01:48:33;23.90;62.50
41457;DHT22;27197;51.752;5.220;2022-08-02T01:51:09;23.90;64.80
41457;DHT22;27197;51.752;5.220;2022-08-02T01:53:41;23.80;63.30
41457;DHT22;27197;51.752;5.220;2022-08-02T01:56:13;23.90;61.70
41457;DHT22;27197;51.752;5.220;2022-08-02T01:58:48;23.90;64.30
41457;DHT22;27197;51.752;5.220;2022-08-02T02:01:19;23.90;64.80
41457;DHT22;27197;51.752;5.220;2022-08-02T02:03:51;23.90;64.60
41457;DHT22;27197;51.752;5.220;2022-08-02T02:06:25;23.80;63.30
41457;DHT22;27197;51.752;5.220;2022-08-02T02:08:53;23.90;65.50
41457;DHT22;27197;51.752;5.220;2022-08-02T02:11:26;23.90;62.00
41457;DHT22;27197;51.752;5.220;2022-08-02T02:14:02;23.90;64.50
41457;DHT22;27197;51.752;5.220;2022-08-02T02:16:34;23.90;64.70
41457;DHT22;27197;51.752;5.220;2022-08-02T02:19:07;23.90;65.00
41457;DHT22;27197;51.752;5.220;2022-08-02T02:21:38;23.90;65.00
41457;DHT22;27197;51.752;5.220;2022-08-02T02:24:11;23.90;65.20
41457;DHT22;27197;51.752;5.220;2022-08-02T02:26:44;23.90;65.10
41457;DHT22;27197;51.752;5.220;2022-08-02T02:29:17;23.90;64.90
41457;DHT22;27197;51.752;5.220;2022-08-02T02:31:51;23.90;65.20
41457;DHT22;27197;51.752;5.220;2022-08-02T02:34:36;23.90;65.20
41457;DHT22;27197;51.752;5.220;2022-08-02T02:37:01;23.90;65.30
41457;DHT22;27197;51.752;5.220;2022-08-02T02:39:33;23.90;65.00
41457;DHT22;27197;51.752;5.220;2022-08-02T02:42:06;23.90;65.30
41457;DHT22;27197;51.752;5.220;2022-08-02T02:44:37;23.90;65.20
41457;DHT22;27197;51.752;5.220;2022-08-02T02:47:11;23.90;64.80
41457;DHT22;27197;51.752;5.220;2022-08-02T02:49:44;23.90;63.70
41457;DHT22;27197;51.752;5.220;2022-08-02T02:52:17;23.90;65.10
41457;DHT22;27197;51.752;5.220;2022-08-02T02:54:49;23.90;65.20
41457;DHT22;27197;51.752;5.220;2022-08-02T02:57:22;23.90;64.60
41457;DHT22;27197;51.752;5.220;2022-08-02T02:59:55;23.90;63.20
41457;DHT22;27197;51.752;5.220;2022-08-02T03:02:28;23.90;64.70
41457;DHT22;27197;51.752;5.220;2022-08-02T03:05:00;23.90;61.00
41457;DHT22;27197;51.752;5.220;2022-08-02T03:07:31;23.90;64.80
41457;DHT22;27197;51.752;5.220;2022-08-02T03:10:07;23.80;64.80
41457;DHT22;27197;51.752;5.220;2022-08-02T03:12:41;23.80;64.80
41457;DHT22;27197;51.752;5.220;2022-08-02T03:15:13;23.80;64.30
41457;DHT22;27197;51.752;5.220;2022-08-02T03:17:47;23.80;63.80
41457;DHT22;27197;51.752;5.220;2022-08-02T03:20:19;23.80;64.80
41457;DHT22;27197;51.752;5.220;2022-08-02T03:22:49;23.80;64.70
41457;DHT22;27197;51.752;5.220;2022-08-02T03:25:23;23.90;64.70
41457;DHT22;27197;51.752;5.220;2022-08-02T03:27:51;23.90;64.60
41457;DHT22;27197;51.752;5.220;2022-08-02T03:30:22;23.90;64.70
41457;DHT22;27197;51.752;5.220;2022-08-02T03:32:56;23.90;64.50
41457;DHT22;27197;51.752;5.220;2022-08-02T03:35:27;23.80;63.70
41457;DHT22;27197;51.752;5.220;2022-08-02T03:37:57;23.80;63.70
41457;DHT22;27197;51.752;5.220;2022-08-02T03:40:30;23.80;61.60
41457;DHT22;27197;51.752;5.220;2022-08-02T03:43:04;23.80;61.00
41457;DHT22;27197;51.752;5.220;2022-08-02T03:45:35;23.80;62.90
41457;DHT22;27197;51.752;5.220;2022-08-02T03:48:06;23.70;61.20
41457;DHT22;27197;51.752;5.220;2022-08-02T03:50:42;23.70;62.00
41457;DHT22;27197;51.752;5.220;2022-08-02T03:53:12;23.60;62.90
41457;DHT22;27197;51.752;5.220;2022-08-02T03:55:45;23.60;62.10
41457;DHT22;27197;51.752;5.220;2022-08-02T03:58:26;23.60;61.70
41457;DHT22;27197;51.752;5.220;2022-08-02T04:00:57;23.70;62.00
41457;DHT22;27197;51.752;5.220;2022-08-02T04:03:27;23.70;63.40
41457;DHT22;27197;51.752;5.220;2022-08-02T04:05:58;23.60;60.10
41457;DHT22;27197;51.752;5.220;2022-08-02T04:08:28;23.60;60.80
41457;DHT22;27197;51.752;5.220;2022-08-02T04:11:02;23.60;60.10
41457;DHT22;27197;51.752;5.220;2022-08-02T04:13:50;23.60;60.80
41457;DHT22;27197;51.752;5.220;2022-08-02T04:16:29;23.40;58.70
41457;DHT22;27197;51.752;5.220;2022-08-02T04:19:02;23.30;61.30
41457;DHT22;27197;51.752;5.220;2022-08-02T04:21:37;23.30;62.30
41457;DHT22;27197;51.752;5.220;2022-08-02T04:24:11;23.40;64.20
41457;DHT22;27197;51.752;5.220;2022-08-02T04:26:41;23.40;61.90
41457;DHT22;27197;51.752;5.220;2022-08-02T04:29:14;23.40;63.80
41457;DHT22;27197;51.752;5.220;2022-08-02T04:31:44;23.50;61.60
41457;DHT22;27197;51.752;5.220;2022-08-02T04:34:14;23.50;59.90
41457;DHT22;27197;51.752;5.220;2022-08-02T04:36:46;23.40;60.60
41457;DHT22;27197;51.752;5.220;2022-08-02T04:39:16;23.50;61.10
41457;DHT22;27197;51.752;5.220;2022-08-02T04:41:46;23.50;63.10
41457;DHT22;27197;51.752;5.220;2022-08-02T04:44:19;23.60;64.30
41457;DHT22;27197;51.752;5.220;2022-08-02T04:46:50;23.50;61.90
41457;DHT22;27197;51.752;5.220;2022-08-02T04:49:21;23.50;62.20
41457;DHT22;27197;51.752;5.220;2022-08-02T04:51:50;23.40;64.00
41457;DHT22;27197;51.752;5.220;2022-08-02T04:54:20;23.50;62.90
41457;DHT22;27197;51.752;5.220;2022-08-02T04:56:52;23.50;62.70
41457;DHT22;27197;51.752;5.220;2022-08-02T04:59:23;23.60;64.50
41457;DHT22;27197;51.752;5.220;2022-08-02T05:01:52;23.50;62.70
41457;DHT22;27197;51.752;5.220;2022-08-02T05:04:23;23.30;61.80
41457;DHT22;27197;51.752;5.220;2022-08-02T05:06:56;23.10;56.10
41457;DHT22;27197;51.752;5.220;2022-08-02T05:09:25;23.10;59.70
41457;DHT22;27197;51.752;5.220;2022-08-02T05:11:59;23.00;59.00
41457;DHT22;27197;51.752;5.220;2022-08-02T05:14:31;23.00;58.00
41457;DHT22;27197;51.752;5.220;2022-08-02T05:17:02;22.90;59.30
41457;DHT22;27197;51.752;5.220;2022-08-02T05:19:35;22.90;60.70
41457;DHT22;27197;51.752;5.220;2022-08-02T05:22:06;22.90;60.90
41457;DHT22;27197;51.752;5.220;2022-08-02T05:24:38;22.80;62.00
41457;DHT22;27197;51.752;5.220;2022-08-02T05:27:07;22.80;59.40
41457;DHT22;27197;51.752;5.220;2022-08-02T05:29:40;22.80;61.20
41457;DHT22;27197;51.752;5.220;2022-08-02T05:32:10;22.80;58.90
41457;DHT22;27197;51.752;5.220;2022-08-02T05:34:42;22.50;59.50
41457;DHT22;27197;51.752;5.220;2022-08-02T05:37:15;22.40;62.50
41457;DHT22;27197;51.752;5.220;2022-08-02T05:39:51;22.50;64.40
41457;DHT22;27197;51.752;5.220;2022-08-02T05:42:19;22.70;64.00
41457;DHT22;27197;51.752;5.220;2022-08-02T05:44:51;22.70;63.20
41457;DHT22;27197;51.752;5.220;2022-08-02T05:47:22;22.50;59.40
41457;DHT22;27197;51.752;5.220;2022-08-02T05:49:52;22.50;63.70
41457;DHT22;27197;51.752;5.220;2022-08-02T05:52:33;22.40;64.50
41457;DHT22;27197;51.752;5.220;2022-08-02T05:55:13;22.40;64.00
41457;DHT22;27197;51.752;5.220;2022-08-02T05:58:12;22.40;61.30
41457;DHT22;27197;51.752;5.220;2022-08-02T06:00:42;22.40;63.10
41457;DHT22;27197;51.752;5.220;2022-08-02T06:03:26;22.30;61.70
41457;DHT22;27197;51.752;5.220;2022-08-02T06:06:13;22.30;62.60
41457;DHT22;27197;51.752;5.220;2022-08-02T06:08:44;22.20;63.20
41457;DHT22;27197;51.752;5.220;2022-08-02T06:11:16;22.30;60.90
41457;DHT22;27197;51.752;5.220;2022-08-02T06:13:49;22.30;64.10
41457;DHT22;27197;51.752;5.220;2022-08-02T06:16:20;22.40;62.70
41457;DHT22;27197;51.752;5.220;2022-08-02T06:18:50;22.40;65.10
41457;DHT22;27197;51.752;5.220;2022-08-02T06:21:21;22.30;63.70
41457;DHT22;27197;51.752;5.220;2022-08-02T06:23:55;22.40;69.00
41457;DHT22;27197;51.752;5.220;2022-08-02T06:26:26;22.40;66.30
41457;DHT22;27197;51.752;5.220;2022-08-02T06:29:00;22.40;68.40
41457;DHT22;27197;51.752;5.220;2022-08-02T06:31:32;22.50;67.90
41457;DHT22;27197;51.752;5.220;2022-08-02T06:34:03;22.50;65.00
41457;DHT22;27197;51.752;5.220;2022-08-02T06:36:45;22.40;65.30
41457;DHT22;27197;51.752;5.220;2022-08-02T06:39:24;22.30;63.40
41457;DHT22;27197;51.752;5.220;2022-08-02T06:41:54;22.20;65.60
41457;DHT22;27197;51.752;5.220;2022-08-02T06:44:24;22.20;67.60
41457;DHT22;27197;51.752;5.220;2022-08-02T06:46:56;22.20;64.40
41457;DHT22;27197;51.752;5.220;2022-08-02T06:49:28;22.10;65.30
41457;DHT22;27197;51.752;5.220;2022-08-02T06:51:58;22.10;65.50
41457;DHT22;27197;51.752;5.220;2022-08-02T06:54:28;22.20;66.60
41457;DHT22;27197;51.752;5.220;2022-08-02T06:57:02;22.30;66.50
41457;DHT22;27197;51.752;5.220;2022-08-02T06:59:31;22.30;66.20
41457;DHT22;27197;51.752;5.220;2022-08-02T07:02:00;22.50;66.20
41457;DHT22;27197;51.752;5.220;2022-08-02T07:04:33;22.50;65.80
41457;DHT22;27197;51.752;5.220;2022-08-02T07:07:04;22.50;68.40
41457;DHT22;27197;51.752;5.220;2022-08-02T07:09:36;22.60;70.00
41457;DHT22;27197;51.752;5.220;2022-08-02T07:12:06;22.60;69.40
41457;DHT22;27197;51.752;5.220;2022-08-02T07:14:34;22.80;72.10
41457;DHT22;27197;51.752;5.220;2022-08-02T07:17:04;22.90;71.50
41457;DHT22;27197;51.752;5.220;2022-08-02T07:19:38;22.90;67.60
41457;DHT22;27197;51.752;5.220;2022-08-02T07:22:06;23.10;71.60
41457;DHT22;27197;51.752;5.220;2022-08-02T07:24:36;23.20;71.90
41457;DHT22;27197;51.752;5.220;2022-08-02T07:27:07;23.30;71.50
41457;DHT22;27197;51.752;5.220;2022-08-02T07:29:41;23.30;67.00
41457;DHT22;27197;51.752;5.220;2022-08-02T07:32:09;23.20;69.40
41457;DHT22;27197;51.752;5.220;2022-08-02T07:34:39;23.30;71.80
41457;DHT22;27197;51.752;5.220;2022-08-02T07:37:09;23.40;69.00
41457;DHT22;27197;51.752;5.220;2022-08-02T07:39:38;23.40;70.40
41457;DHT22;27197;51.752;5.220;2022-08-02T07:42:12;23.40;70.20
41457;DHT22;27197;51.752;5.220;2022-08-02T07:44:41;23.40;67.80
41457;DHT22;27197;51.752;5.220;2022-08-02T07:47:14;23.30;68.40
41457;DHT22;27197;51.752;5.220;2022-08-02T07:49:43;23.30;65.50
41457;DHT22;27197;51.752;5.220;2022-08-02T07:52:12;23.10;66.00
41457;DHT22;27197;51.752;5.220;2022-08-02T07:54:44;23.10;67.80
41457;DHT22;27197;51.752;5.220;2022-08-02T07:57:16;23.20;70.00
41457;DHT22;27197;51.752;5.220;2022-08-02T07:59:45;23.40;69.20
41457;DHT22;27197;51.752;5.220;2022-08-02T08:02:15;23.40;68.80
41457;DHT22;27197;51.752;5.220;2022-08-02T08:04:45;23.40;67.10
41457;DHT22;27197;51.752;5.220;2022-08-02T08:07:16;23.40;65.00
41457;DHT22;27197;51.752;5.220;2022-08-02T08:09:49;23.30;66.70
41457;DHT22;27197;51.752;5.220;2022-08-02T08:12:17;23.40;67.00
41457;DHT22;27197;51.752;5.220;2022-08-02T08:14:50;23.50;67.90
41457;DHT22;27197;51.752;5.220;2022-08-02T08:17:20;23.50;67.70
41457;DHT22;27197;51.752;5.220;2022-08-02T08:19:51;23.50;67.60
41457;DHT22;27197;51.752;5.220;2022-08-02T08:22:22;23.60;68.40
41457;DHT22;27197;51.752;5.220;2022-08-02T08:24:54;23.60;68.30
41457;DHT22;27197;51.752;5.220;2022-08-02T08:27:29;23.60;66.50
41457;DHT22;27197;51.752;5.220;2022-08-02T08:29:58;23.60;66.30
41457;DHT22;27197;51.752;5.220;2022-08-02T08:32:29;23.60;67.10
41457;DHT22;27197;51.752;5.220;2022-08-02T08:34:59;23.60;67.50
41457;DHT22;27197;51.752;5.220;2022-08-02T08:37:38;23.60;66.20
41457;DHT22;27197;51.752;5.220;2022-08-02T08:40:07;23.60;66.10
41457;DHT22;27197;51.752;5.220;2022-08-02T08:42:40;23.70;66.20
41457;DHT22;27197;51.752;5.220;2022-08-02T08:45:11;23.70;66.90
41457;DHT22;27197;51.752;5.220;2022-08-02T08:47:44;23.70;66.60
41457;DHT22;27197;51.752;5.220;2022-08-02T08:50:19;23.70;66.20
41457;DHT22;27197;51.752;5.220;2022-08-02T08:53:00;23.70;66.20
41457;DHT22;27197;51.752;5.220;2022-08-02T08:55:24;23.70;66.30
41457;DHT22;27197;51.752;5.220;2022-08-02T08:58:05;23.80;67.30
41457;DHT22;27197;51.752;5.220;2022-08-02T09:00:37;23.80;65.80
41457;DHT22;27197;51.752;5.220;2022-08-02T09:03:08;23.80;66.50
41457;DHT22;27197;51.752;5.220;2022-08-02T09:05:38;23.80;66.30
41457;DHT22;27197;51.752;5.220;2022-08-02T09:08:10;23.90;66.10
41457;DHT22;27197;51.752;5.220;2022-08-02T09:10:43;23.90;65.80
41457;DHT22;27197;51.752;5.220;2022-08-02T09:13:25;23.90;66.30
41457;DHT22;27197;51.752;5.220;2022-08-02T09:16:00;24.00;65.80
41457;DHT22;27197;51.752;5.220;2022-08-02T09:18:39;24.10;64.70
41457;DHT22;27197;51.752;5.220;2022-08-02T09:21:12;24.10;65.30
41457;DHT22;27197;51.752;5.220;2022-08-02T09:23:51;24.10;64.90
41457;DHT22;27197;51.752;5.220;2022-08-02T09:26:24;24.10;64.80
41457;DHT22;27197;51.752;5.220;2022-08-02T09:28:58;24.10;65.00
41457;DHT22;27197;51.752;5.220;2022-08-02T09:31:27;24.30;63.30
41457;DHT22;27197;51.752;5.220;2022-08-02T09:34:02;24.30;63.10
41457;DHT22;27197;51.752;5.220;2022-08-02T09:36:45;24.40;61.90
41457;DHT22;27197;51.752;5.220;2022-08-02T09:39:18;24.40;62.30
41457;DHT22;27197;51.752;5.220;2022-08-02T09:41:53;24.40;61.20
41457;DHT22;27197;51.752;5.220;2022-08-02T09:44:27;24.40;60.90
41457;DHT22;27197;51.752;5.220;2022-08-02T09:46:57;24.30;62.00
41457;DHT22;27197;51.752;5.220;2022-08-02T09:49:31;24.30;61.90
41457;DHT22;27197;51.752;5.220;2022-08-02T09:52:02;24.30;59.10
41457;DHT22;27197;51.752;5.220;2022-08-02T09:54:31;24.40;60.70
41457;DHT22;27197;51.752;5.220;2022-08-02T09:57:02;24.40;60.90
41457;DHT22;27197;51.752;5.220;2022-08-02T09:59:31;24.40;60.00
41457;DHT22;27197;51.752;5.220;2022-08-02T10:02:07;24.40;58.50
41457;DHT22;27197;51.752;5.220;2022-08-02T10:04:34;24.50;56.70
41457;DHT22;27197;51.752;5.220;2022-08-02T10:07:07;24.60;56.50
41457;DHT22;27197;51.752;5.220;2022-08-02T10:09:41;24.50;58.80
41457;DHT22;27197;51.752;5.220;2022-08-02T10:12:18;24.50;59.10
41457;DHT22;27197;51.752;5.220;2022-08-02T10:14:50;24.70;56.40
41457;DHT22;27197;51.752;5.220;2022-08-02T10:17:21;24.70;55.20
41457;DHT22;27197;51.752;5.220;2022-08-02T10:19:52;24.80;55.60
41457;DHT22;27197;51.752;5.220;2022-08-02T10:22:25;24.90;53.70
41457;DHT22;27197;51.752;5.220;2022-08-02T10:24:58;24.90;57.10
41457;DHT22;27197;51.752;5.220;2022-08-02T10:27:31;24.80;55.80
41457;DHT22;27197;51.752;5.220;2022-08-02T10:30:04;24.80;55.40
41457;DHT22;27197;51.752;5.220;2022-08-02T10:32:40;24.70;58.30
41457;DHT22;27197;51.752;5.220;2022-08-02T10:35:13;24.60;57.40
41457;DHT22;27197;51.752;5.220;2022-08-02T10:37:43;24.60;55.80
41457;DHT22;27197;51.752;5.220;2022-08-02T10:40:16;24.60;56.40
41457;DHT22;27197;51.752;5.220;2022-08-02T10:42:55;24.70;57.00
41457;DHT22;27197;51.752;5.220;2022-08-02T10:45:25;24.90;52.30
41457;DHT22;27197;51.752;5.220;2022-08-02T10:48:07;24.90;56.80
41457;DHT22;27197;51.752;5.220;2022-08-02T10:50:51;24.80;56.80
41457;DHT22;27197;51.752;5.220;2022-08-02T10:53:31;24.80;55.70
41457;DHT22;27197;51.752;5.220;2022-08-02T10:56:05;24.80;57.50
41457;DHT22;27197;51.752;5.220;2022-08-02T10:58:35;24.70;58.20
41457;DHT22;27197;51.752;5.220;2022-08-02T11:01:28;24.70;56.10
41457;DHT22;27197;51.752;5.220;2022-08-02T11:03:40;24.80;54.70
41457;DHT22;27197;51.752;5.220;2022-08-02T11:06:14;25.10;53.90
41457;DHT22;27197;51.752;5.220;2022-08-02T11:08:49;25.10;54.10
41457;DHT22;27197;51.752;5.220;2022-08-02T11:11:20;24.90;55.50
41457;DHT22;27197;51.752;5.220;2022-08-02T11:14:04;25.00;52.00
41457;DHT22;27197;51.752;5.220;2022-08-02T11:19:31;25.40;51.40
41457;DHT22;27197;51.752;5.220;2022-08-02T11:22:04;25.30;51.60
41457;DHT22;27197;51.752;5.220;2022-08-02T11:24:39;25.10;54.00
41457;DHT22;27197;51.752;5.220;2022-08-02T11:27:19;25.00;51.80
41457;DHT22;27197;51.752;5.220;2022-08-02T11:29:44;25.00;54.50
41457;DHT22;27197;51.752;5.220;2022-08-02T11:32:21;25.20;50.50
41457;DHT22;27197;51.752;5.220;2022-08-02T11:34:52;25.00;54.40
41457;DHT22;27197;51.752;5.220;2022-08-02T11:37:29;24.60;54.70
41457;DHT22;27197;51.752;5.220;2022-08-02T11:40:04;24.60;53.70
41457;DHT22;27197;51.752;5.220;2022-08-02T11:42:37;24.40;54.10
41457;DHT22;27197;51.752;5.220;2022-08-02T11:45:12;24.30;52.50
41457;DHT22;27197;51.752;5.220;2022-08-02T11:47:49;24.10;54.10
41457;DHT22;27197;51.752;5.220;2022-08-02T11:50:25;24.00;53.80
41457;DHT22;27197;51.752;5.220;2022-08-02T11:52:54;23.90;54.10
41457;DHT22;27197;51.752;5.220;2022-08-02T11:55:30;23.70;54.10
41457;DHT22;27197;51.752;5.220;2022-08-02T11:58:03;24.00;53.00
41457;DHT22;27197;51.752;5.220;2022-08-02T12:00:34;24.10;52.20
41457;DHT22;27197;51.752;5.220;2022-08-02T12:03:04;24.00;53.40
41457;DHT22;27197;51.752;5.220;2022-08-02T12:05:37;24.10;53.00
41457;DHT22;27197;51.752;5.220;2022-08-02T12:08:08;24.50;51.90
41457;DHT22;27197;51.752;5.220;2022-08-02T12:10:45;24.40;53.90
41457;DHT22;27197;51.752;5.220;2022-08-02T12:13:09;24.50;53.50
41457;DHT22;27197;51.752;5.220;2022-08-02T12:15:44;24.50;53.10
41457;DHT22;27197;51.752;5.220;2022-08-02T12:18:20;24.60;52.70
41457;DHT22;27197;51.752;5.220;2022-08-02T12:21:25;25.00;51.90
41457;DHT22;27197;51.752;5.220;2022-08-02T12:23:54;24.80;52.80
41457;DHT22;27197;51.752;5.220;2022-08-02T12:26:25;24.50;53.80
41457;DHT22;27197;51.752;5.220;2022-08-02T12:29:02;24.30;54.50
41457;DHT22;27197;51.752;5.220;2022-08-02T12:31:45;24.60;53.60
41457;DHT22;27197;51.752;5.220;2022-08-02T12:34:18;24.30;54.00
41457;DHT22;27197;51.752;5.220;2022-08-02T12:37:01;24.00;54.90
41457;DHT22;27197;51.752;5.220;2022-08-02T12:42:11;23.80;55.30
41457;DHT22;27197;51.752;5.220;2022-08-02T12:44:57;23.70;56.40
41457;DHT22;27197;51.752;5.220;2022-08-02T12:47:29;23.80;55.90
41457;DHT22;27197;51.752;5.220;2022-08-02T12:50:27;24.30;54.00
41457;DHT22;27197;51.752;5.220;2022-08-02T12:53:14;24.20;55.40
41457;DHT22;27197;51.752;5.220;2022-08-02T12:55:53;24.50;55.20
41457;DHT22;27197;51.752;5.220;2022-08-02T12:58:21;24.70;55.00
41457;DHT22;27197;51.752;5.220;2022-08-02T13:00:58;24.90;54.50
41457;DHT22;27197;51.752;5.220;2022-08-02T13:03:29;24.90;53.90
41457;DHT22;27197;51.752;5.220;2022-08-02T13:06:00;24.90;54.60
41457;DHT22;27197;51.752;5.220;2022-08-02T13:08:32;24.60;55.80
41457;DHT22;27197;51.752;5.220;2022-08-02T13:11:09;24.40;54.40
41457;DHT22;27197;51.752;5.220;2022-08-02T13:13:41;24.40;57.40
41457;DHT22;27197;51.752;5.220;2022-08-02T13:16:13;24.30;55.40
41457;DHT22;27197;51.752;5.220;2022-08-02T13:18:43;24.40;56.50
41457;DHT22;27197;51.752;5.220;2022-08-02T13:21:16;24.50;56.80
41457;DHT22;27197;51.752;5.220;2022-08-02T13:23:47;24.30;57.40
41457;DHT22;27197;51.752;5.220;2022-08-02T13:26:20;24.30;57.20
41457;DHT22;27197;51.752;5.220;2022-08-02T13:28:49;24.10;57.60
41457;DHT22;27197;51.752;5.220;2022-08-02T13:31:20;24.30;58.40
41457;DHT22;27197;51.752;5.220;2022-08-02T13:33:53;24.30;58.00
41457;DHT22;27197;51.752;5.220;2022-08-02T13:36:22;24.30;57.00
41457;DHT22;27197;51.752;5.220;2022-08-02T13:38:55;24.60;56.40
41457;DHT22;27197;51.752;5.220;2022-08-02T13:41:25;24.40;56.90
41457;DHT22;27197;51.752;5.220;2022-08-02T13:43:55;24.10;58.00
41457;DHT22;27197;51.752;5.220;2022-08-02T13:46:29;24.30;56.90
41457;DHT22;27197;51.752;5.220;2022-08-02T13:48:58;24.90;55.50
41457;DHT22;27197;51.752;5.220;2022-08-02T13:51:27;25.10;55.70
41457;DHT22;27197;51.752;5.220;2022-08-02T13:53:59;24.90;56.20
41457;DHT22;27197;51.752;5.220;2022-08-02T13:56:31;24.90;56.10
41457;DHT22;27197;51.752;5.220;2022-08-02T13:59:02;25.10;54.80
41457;DHT22;27197;51.752;5.220;2022-08-02T14:01:35;25.60;53.30
41457;DHT22;27197;51.752;5.220;2022-08-02T14:04:09;25.90;52.70
41457;DHT22;27197;51.752;5.220;2022-08-02T14:06:41;25.50;53.60
41457;DHT22;27197;51.752;5.220;2022-08-02T14:09:11;25.40;54.40
41457;DHT22;27197;51.752;5.220;2022-08-02T14:11:41;25.40;54.70
41457;DHT22;27197;51.752;5.220;2022-08-02T14:14:14;26.00;53.10
41457;DHT22;27197;51.752;5.220;2022-08-02T14:16:45;25.70;53.40
41457;DHT22;27197;51.752;5.220;2022-08-02T14:19:17;25.40;54.60
41457;DHT22;27197;51.752;5.220;2022-08-02T14:21:49;25.30;54.80
41457;DHT22;27197;51.752;5.220;2022-08-02T14:24:24;25.20;55.50
41457;DHT22;27197;51.752;5.220;2022-08-02T14:26:53;25.10;56.00
41457;DHT22;27197;51.752;5.220;2022-08-02T14:29:21;24.90;56.50
41457;DHT22;27197;51.752;5.220;2022-08-02T14:31:53;24.80;56.90
41457;DHT22;27197;51.752;5.220;2022-08-02T14:34:24;24.70;56.90
41457;DHT22;27197;51.752;5.220;2022-08-02T14:36:58;24.70;57.10
41457;DHT22;27197;51.752;5.220;2022-08-02T14:39:28;24.80;57.10
41457;DHT22;27197;51.752;5.220;2022-08-02T14:42:03;24.90;57.00
41457;DHT22;27197;51.752;5.220;2022-08-02T14:44:34;25.10;58.20
41457;DHT22;27197;51.752;5.220;2022-08-02T14:47:05;25.30;56.80
41457;DHT22;27197;51.752;5.220;2022-08-02T14:49:34;25.50;55.90
41457;DHT22;27197;51.752;5.220;2022-08-02T14:52:04;25.40;56.90
41457;DHT22;27197;51.752;5.220;2022-08-02T14:54:35;25.60;55.90
41457;DHT22;27197;51.752;5.220;2022-08-02T14:57:05;25.70;55.90
41457;DHT22;27197;51.752;5.220;2022-08-02T14:59:36;25.90;55.50
41457;DHT22;27197;51.752;5.220;2022-08-02T15:02:07;26.10;55.10
41457;DHT22;27197;51.752;5.220;2022-08-02T15:04:37;25.80;55.10
41457;DHT22;27197;51.752;5.220;2022-08-02T15:07:07;25.60;56.20
41457;DHT22;27197;51.752;5.220;2022-08-02T15:09:42;25.40;56.90
41457;DHT22;27197;51.752;5.220;2022-08-02T15:12:13;25.20;57.10
41457;DHT22;27197;51.752;5.220;2022-08-02T15:14:45;25.40;57.30
41457;DHT22;27197;51.752;5.220;2022-08-02T15:17:19;26.00;55.90
41457;DHT22;27197;51.752;5.220;2022-08-02T15:19:48;26.30;55.20
41457;DHT22;27197;51.752;5.220;2022-08-02T15:22:19;26.00;55.70
41457;DHT22;27197;51.752;5.220;2022-08-02T15:24:53;26.00;55.60
41457;DHT22;27197;51.752;5.220;2022-08-02T15:27:24;26.10;56.60
41457;DHT22;27197;51.752;5.220;2022-08-02T15:29:55;26.20;55.90
41457;DHT22;27197;51.752;5.220;2022-08-02T15:32:25;26.30;55.30
41457;DHT22;27197;51.752;5.220;2022-08-02T15:34:56;25.90;56.80
41457;DHT22;27197;51.752;5.220;2022-08-02T15:37:27;25.80;57.30
41457;DHT22;27197;51.752;5.220;2022-08-02T15:39:59;26.40;55.60
41457;DHT22;27197;51.752;5.220;2022-08-02T15:42:31;26.40;55.20
41457;DHT22;27197;51.752;5.220;2022-08-02T15:45:02;26.20;56.40
41457;DHT22;27197;51.752;5.220;2022-08-02T15:47:37;26.00;56.60
41457;DHT22;27197;51.752;5.220;2022-08-02T15:50:10;25.90;57.60
41457;DHT22;27197;51.752;5.220;2022-08-02T15:52:39;25.70;57.60
41457;DHT22;27197;51.752;5.220;2022-08-02T15:55:10;25.50;59.10
41457;DHT22;27197;51.752;5.220;2022-08-02T15:57:39;25.40;58.90
41457;DHT22;27197;51.752;5.220;2022-08-02T16:00:10;25.30;59.20
41457;DHT22;27197;51.752;5.220;2022-08-02T16:02:43;25.30;59.40
41457;DHT22;27197;51.752;5.220;2022-08-02T16:05:15;25.50;59.20
41457;DHT22;27197;51.752;5.220;2022-08-02T16:07:46;25.40;59.30
41457;DHT22;27197;51.752;5.220;2022-08-02T16:10:19;25.40;60.30
41457;DHT22;27197;51.752;5.220;2022-08-02T16:12:51;25.40;60.20
41457;DHT22;27197;51.752;5.220;2022-08-02T16:15:21;25.40;60.50
41457;DHT22;27197;51.752;5.220;2022-08-02T16:17:55;25.40;60.30